sensor_id;sensor_type;location;lat;lon;timestamp;pressure;altitude;pressure_sealevel;temperature;humidity
59757;BME280;45631;51.962;5.974;2023-02-13T00:01:18;103624.97;;;6.08;100.00
59757;BME280;45631;51.962;5.974;2023-02-13T00:03:46;103624.97;;;6.07;100.00
59757;BME280;45631;51.962;5.974;2023-02-13T00:06:14;103626.69;;;6.08;100.00
59757;BME280;45631;51.962;5.974;2023-02-13T00:08:43;103618.03;;;6.01;100.00
59757;BME280;45631;51.962;5.974;2023-02-13T00:11:12;103625.84;;;6.01;100.00
59757;BME280;45631;51.962;5.974;2023-02-13T00:13:42;103617.13;;;6.01;100.00
59757;BME280;45631;51.962;5.974;2023-02-13T00:16:11;103623.22;;;5.93;100.00
59757;BME280;45631;51.962;5.974;2023-02-13T00:18:39;103612.78;;;6.01;100.00
59757;BME280;45631;51.962;5.974;2023-02-13T00:21:09;103609.28;;;5.96;100.00
59757;BME280;45631;51.962;5.974;2023-02-13T00:23:38;103608.38;;;5.96;100.00
59757;BME280;45631;51.962;5.974;2023-02-13T00:26:09;103610.16;;;5.93;100.00
59757;BME280;45631;51.962;5.974;2023-02-13T00:28:38;103604.94;;;5.92;100.00
59757;BME280;45631;51.962;5.974;2023-02-13T00:31:10;103606.69;;;6.01;100.00
59757;BME280;45631;51.962;5.974;2023-02-13T00:33:39;103601.44;;;5.91;100.00
59757;BME280;45631;51.962;5.974;2023-02-13T00:36:09;103604.91;;;5.89;100.00
59757;BME280;45631;51.962;5.974;2023-02-13T00:38:39;103597.09;;;5.86;100.00
59757;BME280;45631;51.962;5.974;2023-02-13T00:41:09;103591.88;;;5.86;100.00
59757;BME280;45631;51.962;5.974;2023-02-13T00:43:37;103597.97;;;5.85;100.00
59757;BME280;45631;51.962;5.974;2023-02-13T00:46:05;103600.56;;;5.85;100.00
59757;BME280;45631;51.962;5.974;2023-02-13T00:48:34;103598.84;;;5.96;100.00
59757;BME280;45631;51.962;5.974;2023-02-13T00:51:02;103604.03;;;5.91;100.00
59757;BME280;45631;51.962;5.974;2023-02-13T00:53:31;103601.47;;;5.85;100.00
59757;BME280;45631;51.962;5.974;2023-02-13T00:56:00;103608.44;;;5.86;100.00
59757;BME280;45631;51.962;5.974;2023-02-13T00:58:29;103598.84;;;5.85;100.00
59757;BME280;45631;51.962;5.974;2023-02-13T01:00:58;103601.44;;;5.88;100.00
59757;BME280;45631;51.962;5.974;2023-02-13T01:03:26;103599.69;;;5.87;100.00
59757;BME280;45631;51.962;5.974;2023-02-13T01:05:55;103598.84;;;5.84;100.00
59757;BME280;45631;51.962;5.974;2023-02-13T01:08:24;103606.69;;;5.82;100.00
59757;BME280;45631;51.962;5.974;2023-02-13T01:10:54;103594.47;;;5.84;100.00
59757;BME280;45631;51.962;5.974;2023-02-13T01:13:23;103597.97;;;5.83;100.00
59757;BME280;45631;51.962;5.974;2023-02-13T01:15:54;103595.34;;;5.85;100.00
59757;BME280;45631;51.962;5.974;2023-02-13T01:18:23;103602.31;;;5.84;100.00
59757;BME280;45631;51.962;5.974;2023-02-13T01:20:58;103609.28;;;5.85;100.00
59757;BME280;45631;51.962;5.974;2023-02-13T01:23:29;103599.72;;;5.84;100.00
59757;BME280;45631;51.962;5.974;2023-02-13T01:25:58;103600.59;;;5.80;100.00
59757;BME280;45631;51.962;5.974;2023-02-13T01:28:26;103598.84;;;5.79;100.00
59757;BME280;45631;51.962;5.974;2023-02-13T01:30:56;103599.72;;;5.78;100.00
59757;BME280;45631;51.962;5.974;2023-02-13T01:33:26;103597.09;;;5.75;100.00
59757;BME280;45631;51.962;5.974;2023-02-13T01:35:55;103598.84;;;5.76;100.00
59757;BME280;45631;51.962;5.974;2023-02-13T01:38:23;103591.00;;;5.76;100.00
59757;BME280;45631;51.962;5.974;2023-02-13T01:40:52;103588.41;;;5.74;100.00
59757;BME280;45631;51.962;5.974;2023-02-13T01:43:21;103593.63;;;5.76;100.00
59757;BME280;45631;51.962;5.974;2023-02-13T01:45:53;103585.78;;;5.79;100.00
59757;BME280;45631;51.962;5.974;2023-02-13T01:48:26;103592.75;;;5.80;100.00
59757;BME280;45631;51.962;5.974;2023-02-13T01:51:03;103582.31;;;5.74;100.00
59757;BME280;45631;51.962;5.974;2023-02-13T01:53:36;103581.44;;;5.75;100.00
59757;BME280;45631;51.962;5.974;2023-02-13T01:56:06;103580.59;;;5.73;100.00
59757;BME280;45631;51.962;5.974;2023-02-13T01:58:38;103575.34;;;5.74;100.00
59757;BME280;45631;51.962;5.974;2023-02-13T02:01:08;103581.44;;;5.72;100.00
59757;BME280;45631;51.962;5.974;2023-02-13T02:03:40;103578.81;;;5.73;100.00
59757;BME280;45631;51.962;5.974;2023-02-13T02:06:14;103581.44;;;5.75;100.00
59757;BME280;45631;51.962;5.974;2023-02-13T02:08:46;103581.44;;;5.75;100.00
59757;BME280;45631;51.962;5.974;2023-02-13T02:11:21;103581.44;;;5.76;100.00
59757;BME280;45631;51.962;5.974;2023-02-13T02:13:53;103584.94;;;5.77;100.00
59757;BME280;45631;51.962;5.974;2023-02-13T02:16:22;103575.34;;;5.73;100.00
59757;BME280;45631;51.962;5.974;2023-02-13T02:18:51;103578.81;;;5.75;100.00
59757;BME280;45631;51.962;5.974;2023-02-13T02:24:50;103572.72;;;5.81;100.00
59757;BME280;45631;51.962;5.974;2023-02-13T02:30:52;103574.47;;;5.77;100.00
59757;BME280;45631;51.962;5.974;2023-02-13T02:33:28;103577.09;;;5.77;100.00
59757;BME280;45631;51.962;5.974;2023-02-13T02:36:09;103570.09;;;5.79;100.00
59757;BME280;45631;51.962;5.974;2023-02-13T02:38:50;103568.41;;;5.78;100.00
59757;BME280;45631;51.962;5.974;2023-02-13T02:41:32;103562.28;;;5.78;100.00
59757;BME280;45631;51.962;5.974;2023-02-13T02:44:17;103567.50;;;5.78;100.00
59757;BME280;45631;51.962;5.974;2023-02-13T02:46:56;103570.13;;;5.76;100.00
59757;BME280;45631;51.962;5.974;2023-02-13T02:50:01;103573.63;;;5.78;100.00
59757;BME280;45631;51.962;5.974;2023-02-13T02:52:42;103574.47;;;5.77;100.00
59757;BME280;45631;51.962;5.974;2023-02-13T02:55:20;103576.22;;;5.80;100.00
59757;BME280;45631;51.962;5.974;2023-02-13T02:57:58;103575.34;;;5.79;100.00
59757;BME280;45631;51.962;5.974;2023-02-13T03:00:47;103570.09;;;5.79;100.00
59757;BME280;45631;51.962;5.974;2023-02-13T03:03:35;103570.13;;;5.82;100.00
59757;BME280;45631;51.962;5.974;2023-02-13T03:06:26;103567.50;;;5.81;100.00
59757;BME280;45631;51.962;5.974;2023-02-13T03:08:59;103561.41;;;5.80;100.00
59757;BME280;45631;51.962;5.974;2023-02-13T03:11:50;103564.03;;;5.80;100.00
59757;BME280;45631;51.962;5.974;2023-02-13T03:14:41;103564.88;;;5.79;100.00
59757;BME280;45631;51.962;5.974;2023-02-13T03:17:12;103561.38;;;5.85;100.00
59757;BME280;45631;51.962;5.974;2023-02-13T03:20:11;103557.06;;;5.85;100.00
59757;BME280;45631;51.962;5.974;2023-02-13T03:23:14;103555.31;;;5.90;100.00
59757;BME280;45631;51.962;5.974;2023-02-13T03:26:01;103558.75;;;5.94;100.00
59757;BME280;45631;51.962;5.974;2023-02-13T03:28:36;103565.75;;;5.87;100.00
59757;BME280;45631;51.962;5.974;2023-02-13T03:31:31;103570.09;;;5.88;100.00
59757;BME280;45631;51.962;5.974;2023-02-13T03:34:04;103569.25;;;5.86;100.00
59757;BME280;45631;51.962;5.974;2023-02-13T03:36:43;103568.34;;;5.86;100.00
59757;BME280;45631;51.962;5.974;2023-02-13T03:39:43;103575.34;;;5.84;100.00
59757;BME280;45631;51.962;5.974;2023-02-13T03:42:17;103573.59;;;5.83;100.00
59757;BME280;45631;51.962;5.974;2023-02-13T03:44:52;103572.75;;;5.82;100.00
59757;BME280;45631;51.962;5.974;2023-02-13T03:47:36;103570.13;;;5.82;100.00
59757;BME280;45631;51.962;5.974;2023-02-13T03:50:07;103564.88;;;5.79;100.00
59757;BME280;45631;51.962;5.974;2023-02-13T03:52:41;103571.84;;;5.83;100.00
59757;BME280;45631;51.962;5.974;2023-02-13T03:55:15;103573.59;;;5.81;100.00
59757;BME280;45631;51.962;5.974;2023-02-13T03:58:04;103571.00;;;5.80;100.00
59757;BME280;45631;51.962;5.974;2023-02-13T04:00:52;103575.34;;;5.79;100.00
59757;BME280;45631;51.962;5.974;2023-02-13T04:03:26;103572.72;;;5.79;100.00
59757;BME280;45631;51.962;5.974;2023-02-13T04:06:01;103571.00;;;5.81;100.00
59757;BME280;45631;51.962;5.974;2023-02-13T04:08:31;103571.84;;;5.80;100.00
59757;BME280;45631;51.962;5.974;2023-02-13T04:11:07;103577.09;;;5.80;100.00
59757;BME280;45631;51.962;5.974;2023-02-13T04:13:42;103573.59;;;5.81;100.00
59757;BME280;45631;51.962;5.974;2023-02-13T04:16:15;103572.72;;;5.81;100.00
59757;BME280;45631;51.962;5.974;2023-02-13T04:18:46;103577.94;;;5.79;100.00
59757;BME280;45631;51.962;5.974;2023-02-13T04:21:15;103575.34;;;5.79;100.00
59757;BME280;45631;51.962;5.974;2023-02-13T04:23:43;103573.59;;;5.80;100.00
59757;BME280;45631;51.962;5.974;2023-02-13T04:26:16;103580.56;;;5.79;100.00
59757;BME280;45631;51.962;5.974;2023-02-13T04:28:45;103571.88;;;5.77;100.00
59757;BME280;45631;51.962;5.974;2023-02-13T04:31:13;103564.88;;;5.79;100.00
59757;BME280;45631;51.962;5.974;2023-02-13T04:33:41;103571.84;;;5.83;100.00
59757;BME280;45631;51.962;5.974;2023-02-13T04:36:09;103572.75;;;5.82;100.00
59757;BME280;45631;51.962;5.974;2023-02-13T04:38:37;103567.50;;;5.79;100.00
59757;BME280;45631;51.962;5.974;2023-02-13T04:41:05;103571.88;;;5.79;100.00
59757;BME280;45631;51.962;5.974;2023-02-13T04:43:35;103577.09;;;5.80;100.00
59757;BME280;45631;51.962;5.974;2023-02-13T04:46:03;103577.94;;;5.81;100.00
59757;BME280;45631;51.962;5.974;2023-02-13T04:48:31;103572.72;;;5.79;100.00
59757;BME280;45631;51.962;5.974;2023-02-13T04:50:59;103570.09;;;5.81;100.00
59757;BME280;45631;51.962;5.974;2023-02-13T04:53:27;103574.50;;;5.75;100.00
59757;BME280;45631;51.962;5.974;2023-02-13T04:55:55;103568.38;;;5.76;100.00
59757;BME280;45631;51.962;5.974;2023-02-13T04:58:23;103573.63;;;5.78;100.00
59757;BME280;45631;51.962;5.974;2023-02-13T05:00:53;103567.50;;;5.78;100.00
59757;BME280;45631;51.962;5.974;2023-02-13T05:03:21;103569.25;;;5.75;100.00
59757;BME280;45631;51.962;5.974;2023-02-13T05:05:49;103564.03;;;5.80;100.00
59757;BME280;45631;51.962;5.974;2023-02-13T05:08:18;103557.06;;;5.79;100.00
59757;BME280;45631;51.962;5.974;2023-02-13T05:10:47;103552.72;;;5.78;100.00
59757;BME280;45631;51.962;5.974;2023-02-13T05:13:15;103546.63;;;5.76;100.00
59757;BME280;45631;51.962;5.974;2023-02-13T05:15:47;103548.34;;;5.80;100.00
59757;BME280;45631;51.962;5.974;2023-02-13T05:18:16;103546.59;;;5.79;100.00
59757;BME280;45631;51.962;5.974;2023-02-13T05:20:45;103547.50;;;5.78;100.00
59757;BME280;45631;51.962;5.974;2023-02-13T05:23:33;103550.09;;;5.76;100.00
59757;BME280;45631;51.962;5.974;2023-02-13T05:26:00;103549.22;;;5.76;100.00
59757;BME280;45631;51.962;5.974;2023-02-13T05:28:28;103544.00;;;5.76;100.00
59757;BME280;45631;51.962;5.974;2023-02-13T05:31:14;103544.00;;;5.76;100.00
59757;BME280;45631;51.962;5.974;2023-02-13T05:33:43;103532.69;;;5.75;100.00
59757;BME280;45631;51.962;5.974;2023-02-13T05:36:12;103538.78;;;5.76;100.00
59757;BME280;45631;51.962;5.974;2023-02-13T05:38:40;103539.66;;;5.75;100.00
59757;BME280;45631;51.962;5.974;2023-02-13T05:41:08;103535.31;;;5.75;100.00
59757;BME280;45631;51.962;5.974;2023-02-13T05:43:39;103542.25;;;5.73;100.00
59757;BME280;45631;51.962;5.974;2023-02-13T05:46:08;103543.16;;;5.74;100.00
59757;BME280;45631;51.962;5.974;2023-02-13T05:48:36;103543.16;;;5.75;100.00
59757;BME280;45631;51.962;5.974;2023-02-13T05:51:06;103540.53;;;5.75;100.00
59757;BME280;45631;51.962;5.974;2023-02-13T05:53:34;103541.41;;;5.76;100.00
59757;BME280;45631;51.962;5.974;2023-02-13T05:56:04;103537.94;;;5.75;100.00
59757;BME280;45631;51.962;5.974;2023-02-13T05:58:33;103543.16;;;5.75;100.00
59757;BME280;45631;51.962;5.974;2023-02-13T06:01:01;103542.25;;;5.73;100.00
59757;BME280;45631;51.962;5.974;2023-02-13T06:03:30;103544.00;;;5.70;100.00
59757;BME280;45631;51.962;5.974;2023-02-13T06:05:59;103543.13;;;5.72;100.00
59757;BME280;45631;51.962;5.974;2023-02-13T06:08:28;103544.88;;;5.72;100.00
59757;BME280;45631;51.962;5.974;2023-02-13T06:10:56;103550.97;;;5.77;100.00
59757;BME280;45631;51.962;5.974;2023-02-13T06:13:25;103541.38;;;5.78;100.00
59757;BME280;45631;51.962;5.974;2023-02-13T06:15:53;103540.50;;;5.80;100.00
59757;BME280;45631;51.962;5.974;2023-02-13T06:18:22;103540.53;;;5.79;100.00
59757;BME280;45631;51.962;5.974;2023-02-13T06:20:50;103534.44;;;5.80;100.00
59757;BME280;45631;51.962;5.974;2023-02-13T06:23:18;103538.75;;;5.79;100.00
59757;BME280;45631;51.962;5.974;2023-02-13T06:25:47;103537.91;;;5.79;100.00
59757;BME280;45631;51.962;5.974;2023-02-13T06:28:16;103538.78;;;5.78;100.00
59757;BME280;45631;51.962;5.974;2023-02-13T06:30:44;103533.56;;;5.78;100.00
59757;BME280;45631;51.962;5.974;2023-02-13T06:33:12;103542.25;;;5.84;100.00
59757;BME280;45631;51.962;5.974;2023-02-13T06:35:40;103541.38;;;5.81;100.00
59757;BME280;45631;51.962;5.974;2023-02-13T06:38:08;103542.25;;;5.81;100.00
59757;BME280;45631;51.962;5.974;2023-02-13T06:40:39;103544.88;;;5.81;100.00
59757;BME280;45631;51.962;5.974;2023-02-13T06:43:08;103541.41;;;5.82;100.00
59757;BME280;45631;51.962;5.974;2023-02-13T06:45:36;103546.59;;;5.79;100.00
59757;BME280;45631;51.962;5.974;2023-02-13T06:48:05;103549.22;;;5.79;100.00
59757;BME280;45631;51.962;5.974;2023-02-13T06:50:33;103544.88;;;5.78;100.00
59757;BME280;45631;51.962;5.974;2023-02-13T06:53:02;103552.72;;;5.81;100.00
59757;BME280;45631;51.962;5.974;2023-02-13T06:55:30;103556.19;;;5.86;100.00
59757;BME280;45631;51.962;5.974;2023-02-13T06:57:58;103550.97;;;5.86;100.00
59757;BME280;45631;51.962;5.974;2023-02-13T07:00:27;103555.31;;;5.86;100.00
59757;BME280;45631;51.962;5.974;2023-02-13T07:03:00;103559.69;;;5.82;100.00
59757;BME280;45631;51.962;5.974;2023-02-13T07:05:29;103557.91;;;5.84;100.00
59757;BME280;45631;51.962;5.974;2023-02-13T07:07:57;103564.00;;;5.85;100.00
59757;BME280;45631;51.962;5.974;2023-02-13T07:10:25;103567.50;;;5.85;100.00
59757;BME280;45631;51.962;5.974;2023-02-13T07:12:53;103569.22;;;5.92;100.00
59757;BME280;45631;51.962;5.974;2023-02-13T07:15:33;103570.97;;;5.92;100.00
59757;BME280;45631;51.962;5.974;2023-02-13T07:18:02;103568.38;;;5.92;100.00
59757;BME280;45631;51.962;5.974;2023-02-13T07:20:31;103576.19;;;5.95;100.00
59757;BME280;45631;51.962;5.974;2023-02-13T07:23:04;103571.84;;;6.02;100.00
59757;BME280;45631;51.962;5.974;2023-02-13T07:25:32;103575.31;;;6.01;100.00
59757;BME280;45631;51.962;5.974;2023-02-13T07:28:01;103566.63;;;6.02;100.00
59757;BME280;45631;51.962;5.974;2023-02-13T07:30:31;103573.59;;;6.03;100.00
59757;BME280;45631;51.962;5.974;2023-02-13T07:33:02;103576.22;;;6.01;100.00
59757;BME280;45631;51.962;5.974;2023-02-13T07:35:30;103582.31;;;6.02;100.00
59757;BME280;45631;51.962;5.974;2023-02-13T07:37:59;103575.31;;;6.04;100.00
59757;BME280;45631;51.962;5.974;2023-02-13T07:40:27;103584.03;;;6.06;100.00
59757;BME280;45631;51.962;5.974;2023-02-13T07:42:59;103588.34;;;6.13;100.00
59757;BME280;45631;51.962;5.974;2023-02-13T07:45:27;103584.00;;;6.09;100.00
59757;BME280;45631;51.962;5.974;2023-02-13T07:47:56;103594.44;;;6.18;100.00
59757;BME280;45631;51.962;5.974;2023-02-13T07:50:25;103591.84;;;6.15;100.00
59757;BME280;45631;51.962;5.974;2023-02-13T07:52:54;103590.09;;;6.17;100.00
59757;BME280;45631;51.962;5.974;2023-02-13T07:55:22;103593.59;;;6.18;100.00
59757;BME280;45631;51.962;5.974;2023-02-13T07:57:51;103597.03;;;6.23;100.00
59757;BME280;45631;51.962;5.974;2023-02-13T08:00:20;103597.03;;;6.28;100.00
59757;BME280;45631;51.962;5.974;2023-02-13T08:02:49;103596.19;;;6.29;100.00
59757;BME280;45631;51.962;5.974;2023-02-13T08:05:17;103600.50;;;6.31;100.00
59757;BME280;45631;51.962;5.974;2023-02-13T08:07:46;103604.84;;;6.34;100.00
59757;BME280;45631;51.962;5.974;2023-02-13T08:10:14;103599.63;;;6.37;100.00
59757;BME280;45631;51.962;5.974;2023-02-13T08:13:00;103596.13;;;6.38;100.00
59757;BME280;45631;51.962;5.974;2023-02-13T08:15:28;103600.47;;;6.43;100.00
59757;BME280;45631;51.962;5.974;2023-02-13T08:17:56;103591.75;;;6.48;100.00
59757;BME280;45631;51.962;5.974;2023-02-13T08:20:27;103600.41;;;6.54;100.00
59757;BME280;45631;51.962;5.974;2023-02-13T08:23:03;103590.81;;;6.58;100.00
59757;BME280;45631;51.962;5.974;2023-02-13T08:25:31;103596.03;;;6.66;100.00
59757;BME280;45631;51.962;5.974;2023-02-13T08:28:00;103589.88;;;6.74;100.00
59757;BME280;45631;51.962;5.974;2023-02-13T08:30:31;103592.44;;;6.82;100.00
59757;BME280;45631;51.962;5.974;2023-02-13T08:32:59;103593.25;;;6.92;100.00
59757;BME280;45631;51.962;5.974;2023-02-13T08:35:27;103594.88;;;7.10;100.00
59757;BME280;45631;51.962;5.974;2023-02-13T08:38:02;103607.94;;;7.18;100.00
59757;BME280;45631;51.962;5.974;2023-02-13T08:40:30;103605.19;;;7.35;100.00
59757;BME280;45631;51.962;5.974;2023-02-13T08:42:59;103607.78;;;7.39;100.00
59757;BME280;45631;51.962;5.974;2023-02-13T08:45:28;103607.59;;;7.63;100.00
59757;BME280;45631;51.962;5.974;2023-02-13T08:47:57;103607.25;;;8.00;100.00
59757;BME280;45631;51.962;5.974;2023-02-13T08:50:26;103612.47;;;8.00;100.00
59757;BME280;45631;51.962;5.974;2023-02-13T08:52:55;103611.47;;;8.13;100.00
59757;BME280;45631;51.962;5.974;2023-02-13T08:55:26;103616.78;;;8.05;100.00
59757;BME280;45631;51.962;5.974;2023-02-13T08:57:58;103614.16;;;8.07;100.00
59757;BME280;45631;51.962;5.974;2023-02-13T09:00:27;103615.84;;;8.14;100.00
59757;BME280;45631;51.962;5.974;2023-02-13T09:02:59;103616.69;;;8.15;100.00
59757;BME280;45631;51.962;5.974;2023-02-13T09:05:28;103611.19;;;8.38;100.00
59757;BME280;45631;51.962;5.974;2023-02-13T09:07:59;103613.88;;;8.35;100.00
59757;BME280;45631;51.962;5.974;2023-02-13T09:10:29;103613.91;;;8.30;100.00
59757;BME280;45631;51.962;5.974;2023-02-13T09:12:59;103606.66;;;8.55;100.00
59757;BME280;45631;51.962;5.974;2023-02-13T09:15:27;103605.78;;;8.56;100.00
59757;BME280;45631;51.962;5.974;2023-02-13T09:17:56;103607.31;;;8.73;100.00
59757;BME280;45631;51.962;5.974;2023-02-13T09:20:24;103610.72;;;8.76;100.00
59757;BME280;45631;51.962;5.974;2023-02-13T09:22:54;103610.66;;;8.83;100.00
59757;BME280;45631;51.962;5.974;2023-02-13T09:25:22;103608.81;;;8.89;100.00
59757;BME280;45631;51.962;5.974;2023-02-13T09:27:52;103607.00;;;8.94;100.00
59757;BME280;45631;51.962;5.974;2023-02-13T09:30:20;103609.63;;;8.94;100.00
59757;BME280;45631;51.962;5.974;2023-02-13T09:32:52;103607.00;;;8.93;100.00
59757;BME280;45631;51.962;5.974;2023-02-13T09:35:21;103610.56;;;8.89;100.00
59757;BME280;45631;51.962;5.974;2023-02-13T09:37:49;103614.00;;;8.94;100.00
59757;BME280;45631;51.962;5.974;2023-02-13T09:40:21;103609.53;;;9.01;100.00
59757;BME280;45631;51.962;5.974;2023-02-13T09:42:56;103618.25;;;9.04;100.00
59757;BME280;45631;51.962;5.974;2023-02-13T09:45:29;103612.06;;;9.08;100.00
59757;BME280;45631;51.962;5.974;2023-02-13T09:47:58;103612.84;;;9.15;100.00
59757;BME280;45631;51.962;5.974;2023-02-13T09:50:28;103614.59;;;9.13;100.00
59757;BME280;45631;51.962;5.974;2023-02-13T09:52:59;103610.91;;;9.26;100.00
59757;BME280;45631;51.962;5.974;2023-02-13T09:55:31;103618.38;;;9.51;100.00
59757;BME280;45631;51.962;5.974;2023-02-13T09:58:08;103612.34;;;9.47;100.00
59757;BME280;45631;51.962;5.974;2023-02-13T10:00:47;103620.09;;;9.54;100.00
59757;BME280;45631;51.962;5.974;2023-02-13T10:03:22;103612.41;;;9.43;100.00
59757;BME280;45631;51.962;5.974;2023-02-13T10:06:02;103616.06;;;9.33;100.00
59757;BME280;45631;51.962;5.974;2023-02-13T10:11:55;103609.44;;;9.63;100.00
59757;BME280;45631;51.962;5.974;2023-02-13T10:14:36;103606.84;;;9.61;100.00
59757;BME280;45631;51.962;5.974;2023-02-13T10:17:10;103607.69;;;9.62;100.00
59757;BME280;45631;51.962;5.974;2023-02-13T10:19:42;103597.72;;;9.81;100.00
59757;BME280;45631;51.962;5.974;2023-02-13T10:22:14;103602.78;;;9.92;100.00
59757;BME280;45631;51.962;5.974;2023-02-13T10:24:45;103602.00;;;10.35;100.00
59757;BME280;45631;51.962;5.974;2023-02-13T10:27:22;103604.69;;;10.73;100.00
59757;BME280;45631;51.962;5.974;2023-02-13T10:29:55;103602.28;;;11.03;100.00
59757;BME280;45631;51.962;5.974;2023-02-13T10:32:46;103605.25;;;11.26;100.00
59757;BME280;45631;51.962;5.974;2023-02-13T10:35:20;103605.47;;;11.17;100.00
59757;BME280;45631;51.962;5.974;2023-02-13T10:37:52;103608.34;;;11.06;100.00
59757;BME280;45631;51.962;5.974;2023-02-13T10:40:23;103606.06;;;11.28;100.00
59757;BME280;45631;51.962;5.974;2023-02-13T10:43:00;103615.63;;;11.69;100.00
59757;BME280;45631;51.962;5.974;2023-02-13T10:45:55;103609.91;;;11.51;100.00
59757;BME280;45631;51.962;5.974;2023-02-13T10:48:38;103607.78;;;11.65;100.00
59757;BME280;45631;51.962;5.974;2023-02-13T10:51:17;103609.00;;;11.87;100.00
59757;BME280;45631;51.962;5.974;2023-02-13T10:54:03;103602.03;;;12.17;100.00
59757;BME280;45631;51.962;5.974;2023-02-13T10:56:40;103593.81;;;11.96;100.00
59757;BME280;45631;51.962;5.974;2023-02-13T10:59:32;103599.59;;;11.76;100.00
59757;BME280;45631;51.962;5.974;2023-02-13T11:02:21;103582.97;;;12.39;100.00
59757;BME280;45631;51.962;5.974;2023-02-13T11:04:52;103580.78;;;12.81;100.00
59757;BME280;45631;51.962;5.974;2023-02-13T11:07:24;103579.81;;;12.84;100.00
59757;BME280;45631;51.962;5.974;2023-02-13T11:09:57;103581.63;;;12.83;100.00
59757;BME280;45631;51.962;5.974;2023-02-13T11:12:28;103582.69;;;12.48;100.00
59757;BME280;45631;51.962;5.974;2023-02-13T11:14:58;103571.00;;;12.85;100.00
59757;BME280;45631;51.962;5.974;2023-02-13T11:17:29;103575.00;;;13.25;100.00
59757;BME280;45631;51.962;5.974;2023-02-13T11:19:59;103564.59;;;13.73;100.00
59757;BME280;45631;51.962;5.974;2023-02-13T11:22:30;103561.66;;;13.55;100.00
59757;BME280;45631;51.962;5.974;2023-02-13T11:25:03;103552.94;;;13.78;100.00
59757;BME280;45631;51.962;5.974;2023-02-13T11:27:37;103553.69;;;13.82;100.00
59757;BME280;45631;51.962;5.974;2023-02-13T11:30:31;103547.59;;;13.55;100.00
59757;BME280;45631;51.962;5.974;2023-02-13T11:33:03;103539.91;;;13.48;100.00
59757;BME280;45631;51.962;5.974;2023-02-13T11:35:34;103536.47;;;13.70;100.00
59757;BME280;45631;51.962;5.974;2023-02-13T11:38:17;103533.88;;;13.68;100.00
59757;BME280;45631;51.962;5.974;2023-02-13T11:40:50;103531.25;;;13.68;100.00
59757;BME280;45631;51.962;5.974;2023-02-13T11:43:33;103541.50;;;13.78;100.00
59757;BME280;45631;51.962;5.974;2023-02-13T11:46:04;103528.78;;;13.64;100.00
59757;BME280;45631;51.962;5.974;2023-02-13T11:48:35;103532.00;;;13.72;100.00
59757;BME280;45631;51.962;5.974;2023-02-13T11:51:03;103528.91;;;13.84;100.00
59757;BME280;45631;51.962;5.974;2023-02-13T11:53:35;103533.09;;;13.66;100.00
59757;BME280;45631;51.962;5.974;2023-02-13T11:56:10;103526.09;;;13.89;100.00
59757;BME280;45631;51.962;5.974;2023-02-13T11:58:39;103532.66;;;13.79;100.00
59757;BME280;45631;51.962;5.974;2023-02-13T12:04:13;103521.91;;;14.31;100.00
59757;BME280;45631;51.962;5.974;2023-02-13T12:06:58;103518.38;;;14.07;100.00
59757;BME280;45631;51.962;5.974;2023-02-13T12:09:28;103520.28;;;13.79;100.00
59757;BME280;45631;51.962;5.974;2023-02-13T12:11:59;103516.78;;;13.53;100.00
59757;BME280;45631;51.962;5.974;2023-02-13T12:14:32;103517.59;;;13.29;100.00
59757;BME280;45631;51.962;5.974;2023-02-13T12:17:04;103520.38;;;13.26;100.00
59757;BME280;45631;51.962;5.974;2023-02-13T12:19:42;103511.94;;;13.14;100.00
59757;BME280;45631;51.962;5.974;2023-02-13T12:22:13;103513.72;;;13.14;100.00
59757;BME280;45631;51.962;5.974;2023-02-13T12:25:03;103517.88;;;13.21;100.00
59757;BME280;45631;51.962;5.974;2023-02-13T12:27:43;103513.00;;;13.35;100.00
59757;BME280;45631;51.962;5.974;2023-02-13T12:30:37;103505.91;;;13.38;100.00
59757;BME280;45631;51.962;5.974;2023-02-13T12:33:19;103505.97;;;13.34;100.00
59757;BME280;45631;51.962;5.974;2023-02-13T12:35:56;103505.28;;;13.55;100.00
59757;BME280;45631;51.962;5.974;2023-02-13T12:38:43;103504.53;;;13.76;100.00
59757;BME280;45631;51.962;5.974;2023-02-13T12:41:19;103493.72;;;13.82;100.00
59757;BME280;45631;51.962;5.974;2023-02-13T12:44:01;103506.06;;;13.82;100.00
59757;BME280;45631;51.962;5.974;2023-02-13T12:46:36;103501.63;;;13.84;100.00
59757;BME280;45631;51.962;5.974;2023-02-13T12:49:20;103496.53;;;14.01;100.00
59757;BME280;45631;51.962;5.974;2023-02-13T12:52:06;103490.53;;;14.20;100.00
59757;BME280;45631;51.962;5.974;2023-02-13T12:54:43;103486.44;;;14.57;100.00
59757;BME280;45631;51.962;5.974;2023-02-13T12:57:26;103479.66;;;14.50;100.00
59757;BME280;45631;51.962;5.974;2023-02-13T13:00:16;103476.97;;;14.96;98.70
59757;BME280;45631;51.962;5.974;2023-02-13T13:03:06;103464.56;;;15.17;96.25
59757;BME280;45631;51.962;5.974;2023-02-13T13:05:50;103463.50;;;15.42;95.63
59757;BME280;45631;51.962;5.974;2023-02-13T13:08:57;103463.56;;;15.40;92.24
59757;BME280;45631;51.962;5.974;2023-02-13T13:11:56;103465.38;;;15.40;93.68
59757;BME280;45631;51.962;5.974;2023-02-13T13:14:32;103469.25;;;15.51;93.91
59757;BME280;45631;51.962;5.974;2023-02-13T13:17:13;103455.38;;;15.65;91.23
59757;BME280;45631;51.962;5.974;2023-02-13T13:19:50;103459.28;;;15.96;90.13
59757;BME280;45631;51.962;5.974;2023-02-13T13:22:23;103454.34;;;16.08;87.57
59757;BME280;45631;51.962;5.974;2023-02-13T13:25:04;103447.19;;;15.70;90.29
59757;BME280;45631;51.962;5.974;2023-02-13T13:27:42;103452.97;;;15.80;89.40
59757;BME280;45631;51.962;5.974;2023-02-13T13:30:17;103448.88;;;15.72;90.53
59757;BME280;45631;51.962;5.974;2023-02-13T13:32:55;103437.34;;;16.12;87.84